createdAt,value
2022-11-28T00:01:34.343Z,5.60
2022-11-28T00:06:36.633Z,5.60
2022-11-28T00:11:35.466Z,5.60
2022-11-28T00:16:33.713Z,5.60
2022-11-28T00:21:33.570Z,5.50
2022-11-28T00:26:33.958Z,5.60
2022-11-28T00:31:35.605Z,5.50
2022-11-28T00:36:35.229Z,5.50
2022-11-28T00:41:35.303Z,5.60
2022-11-28T00:46:33.324Z,5.60
2022-11-28T00:51:33.847Z,5.50
2022-11-28T00:56:35.631Z,5.50
2022-11-28T01:01:35.579Z,5.50
2022-11-28T01:06:36.674Z,5.50
2022-11-28T01:11:38.150Z,5.50
2022-11-28T01:16:36.245Z,5.40
2022-11-28T01:21:34.705Z,5.30
2022-11-28T01:26:34.104Z,5.20
2022-11-28T01:31:33.671Z,5.20
2022-11-28T01:36:31.790Z,5.20
2022-11-28T01:41:30.254Z,5.20
2022-11-28T01:46:28.879Z,5.20
2022-11-28T01:51:29.091Z,5.20
2022-11-28T01:56:32.564Z,5.10
2022-11-28T02:01:30.966Z,5.10
2022-11-28T02:06:31.970Z,5.10
2022-11-28T02:11:59.415Z,5.10
2022-11-28T02:17:09.045Z,5.00
2022-11-28T02:22:11.815Z,5.00
2022-11-28T02:27:24.089Z,5.00
2022-11-28T02:32:51.450Z,5.00
2022-11-28T02:37:59.145Z,5.10
2022-11-28T02:43:06.189Z,5.00
2022-11-28T02:48:09.592Z,5.00
2022-11-28T02:53:11.470Z,5.10
2022-11-28T02:58:11.277Z,5.10
2022-11-28T03:03:39.898Z,5.10
2022-11-28T03:08:47.200Z,5.00
2022-11-28T03:13:57.018Z,5.00
2022-11-28T03:19:02.956Z,5.10
2022-11-28T03:24:04.632Z,5.20
2022-11-28T03:29:09.988Z,5.00
2022-11-28T03:34:15.244Z,4.90
2022-11-28T03:39:17.253Z,4.90
2022-11-28T03:44:20.269Z,4.90
2022-11-28T03:49:25.887Z,4.90
2022-11-28T03:54:29.054Z,4.90
2022-11-28T03:59:32.629Z,4.80
2022-11-28T04:04:37.811Z,4.80
2022-11-28T04:09:43.571Z,4.70
2022-11-28T04:14:47.872Z,4.70
2022-11-28T04:19:51.782Z,4.70
2022-11-28T04:24:53.849Z,4.70
2022-11-28T04:29:55.753Z,4.70
2022-11-28T04:35:00.530Z,4.80
2022-11-28T04:39:59.442Z,4.80
2022-11-28T04:45:03.888Z,4.70
2022-11-28T04:50:03.374Z,4.70
2022-11-28T04:55:08.945Z,4.70
2022-11-28T05:00:09.774Z,4.80
2022-11-28T05:05:13.373Z,4.70
2022-11-28T05:10:12.976Z,4.80
2022-11-28T05:15:12.023Z,4.80
2022-11-28T05:20:12.193Z,4.80
2022-11-28T05:25:10.747Z,4.90
2022-11-28T05:30:11.122Z,4.90
2022-11-28T05:35:10.965Z,4.90
2022-11-28T05:40:10.161Z,4.90
2022-11-28T05:45:09.212Z,4.90
2022-11-28T05:50:09.009Z,4.90
2022-11-28T05:55:09.428Z,4.90
2022-11-28T06:00:08.842Z,4.80
2022-11-28T06:05:34.790Z,4.90
2022-11-28T06:10:29.405Z,4.90
2022-11-28T06:15:27.424Z,4.80
2022-11-28T06:20:25.729Z,4.90
2022-11-28T06:25:23.890Z,4.90
2022-11-28T06:30:23.318Z,4.90
2022-11-28T06:35:21.355Z,4.80
2022-11-28T06:40:19.545Z,4.80
2022-11-28T06:45:17.705Z,4.80
2022-11-28T06:50:17.154Z,4.80
2022-11-28T06:55:15.269Z,4.80
2022-11-28T07:00:14.321Z,4.90
2022-11-28T07:05:12.333Z,4.80
2022-11-28T07:10:12.491Z,4.80
2022-11-28T07:15:11.331Z,4.80
2022-11-28T07:20:10.872Z,4.80
2022-11-28T07:25:11.179Z,4.70
2022-11-28T07:30:11.014Z,4.80
2022-11-28T07:35:09.754Z,4.70
2022-11-28T07:40:08.988Z,4.70
2022-11-28T07:45:09.646Z,4.80
2022-11-28T07:50:09.038Z,4.90
2022-11-28T07:55:07.914Z,4.90
2022-11-28T08:00:08.689Z,4.90
2022-11-28T08:05:10.963Z,4.90
2022-11-28T08:10:10.319Z,4.90
2022-11-28T08:15:10.490Z,5.00
2022-11-28T08:20:10.090Z,5.10
2022-11-28T08:25:08.697Z,5.20
2022-11-28T08:30:10.155Z,5.20
2022-11-28T08:35:08.632Z,5.30
2022-11-28T08:40:08.177Z,5.30
2022-11-28T08:45:08.025Z,5.40
2022-11-28T08:50:08.881Z,5.40
2022-11-28T08:55:07.526Z,5.70
2022-11-28T09:00:06.323Z,5.90
2022-11-28T09:05:04.831Z,6.10
2022-11-28T09:10:04.634Z,6.00
2022-11-28T09:15:02.694Z,5.80
2022-11-28T09:20:00.730Z,5.80
2022-11-28T09:24:58.774Z,5.90
2022-11-28T09:29:58.183Z,5.90
2022-11-28T09:34:56.205Z,5.90
2022-11-28T09:40:12.195Z,5.70
2022-11-28T09:45:16.940Z,5.70
2022-11-28T09:50:19.557Z,5.70
2022-11-28T09:55:22.659Z,5.60
2022-11-28T10:00:24.845Z,5.70
2022-11-28T10:05:30.080Z,5.80
2022-11-28T10:10:37.627Z,5.90
2022-11-28T10:15:45.528Z,5.90
2022-11-28T10:20:46.695Z,6.00
2022-11-28T10:25:49.456Z,6.00
2022-11-28T10:30:53.839Z,6.20
2022-11-28T10:35:54.933Z,6.10
2022-11-28T10:40:59.510Z,6.10
2022-11-28T10:46:14.517Z,5.90
2022-11-28T10:51:25.149Z,5.90
2022-11-28T10:56:36.024Z,6.10
2022-11-28T11:01:38.991Z,6.20
2022-11-28T11:06:47.739Z,6.40
2022-11-28T11:12:00.850Z,6.50
2022-11-28T11:17:00.263Z,6.70
2022-11-28T11:22:04.318Z,6.70
2022-11-28T11:27:08.090Z,6.80
2022-11-28T11:32:17.712Z,7.00
2022-11-28T11:37:21.742Z,7.00
2022-11-28T11:42:24.609Z,7.10
2022-11-28T11:47:42.113Z,7.10
2022-11-28T11:52:40.232Z,7.00
2022-11-28T11:57:40.919Z,6.90
2022-11-28T12:02:45.157Z,7.00
2022-11-28T12:07:51.356Z,7.00
2022-11-28T12:12:49.546Z,7.00
2022-11-28T12:18:02.373Z,6.90
2022-11-28T12:23:15.803Z,6.90
2022-11-28T12:28:27.736Z,6.90
2022-11-28T12:33:40.096Z,6.80
2022-11-28T12:38:59.558Z,6.80
2022-11-28T12:44:04.503Z,7.00
2022-11-28T12:49:17.392Z,7.20
2022-11-28T12:54:41.820Z,7.20
2022-11-28T12:59:49.950Z,7.20
2022-11-28T13:05:10.618Z,7.30
2022-11-28T13:10:16.455Z,7.30
2022-11-28T13:15:21.975Z,7.20
2022-11-28T13:20:29.704Z,7.20
2022-11-28T13:25:36.866Z,7.30
2022-11-28T13:30:43.627Z,7.30
2022-11-28T13:35:45.320Z,7.30
2022-11-28T13:40:50.157Z,7.20
2022-11-28T13:45:48.651Z,7.20
2022-11-28T13:51:00.965Z,7.20
2022-11-28T13:56:21.787Z,7.10
2022-11-28T14:01:22.294Z,7.10
2022-11-28T14:06:24.606Z,7.10
2022-11-28T14:11:42.046Z,6.90
2022-11-28T14:16:52.982Z,6.80
2022-11-28T14:22:08.455Z,6.80
2022-11-28T14:27:08.099Z,6.70
2022-11-28T14:32:29.180Z,6.70
2022-11-28T14:37:52.813Z,6.70
2022-11-28T14:43:31.636Z,6.60
2022-11-28T14:48:31.111Z,6.60
2022-11-28T14:53:49.858Z,6.60
2022-11-28T14:58:49.364Z,6.60
2022-11-28T15:03:55.021Z,6.50
2022-11-28T15:09:07.034Z,6.50
2022-11-28T15:14:15.131Z,6.50
2022-11-28T15:19:21.165Z,6.40
2022-11-28T15:24:26.649Z,6.40
2022-11-28T15:29:26.570Z,6.40
2022-11-28T15:34:27.657Z,6.20
2022-11-28T15:39:31.510Z,6.20
2022-11-28T15:44:30.469Z,6.10
2022-11-28T15:49:31.388Z,6.10
2022-11-28T15:54:42.070Z,6.20
2022-11-28T15:59:40.338Z,6.20
2022-11-28T16:04:39.686Z,6.10
2022-11-28T16:09:39.314Z,6.00
2022-11-28T16:14:45.565Z,6.00
2022-11-28T16:19:45.409Z,5.90
2022-11-28T16:24:48.223Z,5.90
2022-11-28T16:29:47.308Z,5.90
2022-11-28T16:34:47.214Z,6.00
2022-11-28T16:39:46.882Z,6.00
2022-11-28T16:44:45.365Z,5.90
2022-11-28T16:50:16.177Z,5.90
2022-11-28T16:55:46.017Z,5.80
2022-11-28T17:00:47.698Z,5.80
2022-11-28T17:05:45.767Z,5.80
2022-11-28T17:10:45.972Z,5.70
2022-11-28T17:15:44.010Z,5.70
2022-11-28T17:20:42.163Z,5.60
2022-11-28T17:25:40.177Z,5.70
2022-11-28T17:30:39.593Z,5.80
2022-11-28T17:35:42.469Z,5.70
2022-11-28T17:40:42.161Z,5.70
2022-11-28T17:45:41.588Z,5.70
2022-11-28T17:50:39.632Z,5.60
2022-11-28T17:55:42.150Z,5.50
2022-11-28T18:00:41.689Z,5.50
2022-11-28T18:05:41.178Z,5.50
2022-11-28T18:10:39.767Z,5.50
2022-11-28T18:15:39.363Z,5.50
2022-11-28T18:20:39.820Z,5.60
2022-11-28T18:25:42.586Z,5.60
2022-11-28T18:30:43.238Z,5.70
2022-11-28T18:35:42.675Z,5.60
2022-11-28T18:40:40.949Z,5.50
2022-11-28T18:45:39.095Z,5.50
2022-11-28T18:50:37.162Z,5.50
2022-11-28T18:55:36.566Z,5.60
2022-11-28T19:00:34.666Z,5.70
2022-11-28T19:05:37.832Z,5.60
2022-11-28T19:10:40.879Z,5.60
2022-11-28T19:15:40.859Z,5.60
2022-11-28T19:20:42.558Z,5.50
2022-11-28T19:25:44.269Z,5.40
2022-11-28T19:30:42.828Z,5.60
2022-11-28T19:35:40.974Z,5.50
2022-11-28T19:40:38.993Z,5.60
2022-11-28T19:45:38.873Z,5.70
2022-11-28T19:50:36.924Z,5.70
2022-11-28T19:55:36.150Z,5.60
2022-11-28T20:00:34.505Z,5.70
2022-11-28T20:05:34.832Z,5.70
2022-11-28T20:10:36.552Z,5.90
2022-11-28T20:15:36.706Z,5.80
2022-11-28T20:20:36.986Z,5.80
2022-11-28T20:25:35.064Z,5.90
2022-11-28T20:30:36.449Z,5.70
2022-11-28T20:35:35.875Z,5.70
2022-11-28T20:40:33.955Z,5.70
2022-11-28T20:45:32.973Z,5.70
2022-11-28T20:50:31.055Z,5.60
2022-11-28T20:55:30.510Z,5.60
2022-11-28T21:00:28.542Z,5.60
2022-11-28T21:05:26.641Z,5.70
2022-11-28T21:10:26.061Z,5.70
2022-11-28T21:15:26.236Z,5.70
2022-11-28T21:20:24.736Z,5.80
2022-11-28T21:25:23.398Z,5.90
2022-11-28T21:30:21.462Z,5.90
2022-11-28T21:35:20.875Z,5.90
2022-11-28T21:40:19.138Z,5.90
2022-11-28T21:45:17.284Z,5.90
2022-11-28T21:50:16.854Z,5.90
2022-11-28T21:55:16.419Z,5.80
2022-11-28T22:00:31.652Z,5.90
2022-11-28T22:05:34.983Z,5.80
2022-11-28T22:10:34.997Z,5.80
2022-11-28T22:15:33.559Z,5.90
2022-11-28T22:20:32.129Z,5.70
2022-11-28T22:25:30.222Z,5.90
2022-11-28T22:30:29.918Z,5.70
2022-11-28T22:35:28.587Z,5.70
2022-11-28T22:40:26.620Z,5.70
2022-11-28T22:45:24.955Z,5.70
2022-11-28T22:50:24.718Z,5.70
2022-11-28T22:55:22.771Z,5.60
2022-11-28T23:00:21.779Z,5.60
2022-11-28T23:05:20.203Z,5.60
2022-11-28T23:10:20.701Z,5.50
2022-11-28T23:15:19.433Z,5.50
2022-11-28T23:20:18.074Z,5.60
2022-11-28T23:25:16.285Z,5.60
2022-11-28T23:30:16.295Z,5.50
2022-11-28T23:35:14.625Z,5.50
2022-11-28T23:40:13.266Z,5.40
2022-11-28T23:45:12.492Z,5.40
2022-11-28T23:50:12.307Z,5.50
2022-11-28T23:55:10.628Z,5.50
